createdAt,value
2019-02-28T00:00:22.825Z,10.90
2019-02-28T00:01:22.806Z,10.60
2019-02-28T00:02:22.794Z,9.40
2019-02-28T00:03:26.187Z,11.50
2019-02-28T00:04:22.774Z,9.20
2019-02-28T00:05:22.770Z,10.10
2019-02-28T00:06:22.752Z,10.20
2019-02-28T00:07:22.740Z,8.40
2019-02-28T00:08:22.729Z,9.50
2019-02-28T00:09:25.682Z,10.50
2019-02-28T00:10:22.719Z,9.90
2019-02-28T00:11:22.697Z,9.00
2019-02-28T00:12:22.686Z,8.10
2019-02-28T00:13:22.676Z,9.80
2019-02-28T00:14:22.666Z,9.40
2019-02-28T00:15:22.662Z,9.00
2019-02-28T00:16:22.654Z,8.70
2019-02-28T00:17:22.633Z,10.20
2019-02-28T00:18:22.624Z,9.50
2019-02-28T00:19:23.973Z,8.70
2019-02-28T00:20:22.610Z,11.80
2019-02-28T00:21:22.590Z,8.40
2019-02-28T00:22:22.579Z,9.60
2019-02-28T00:23:22.839Z,11.50
2019-02-28T00:24:22.557Z,10.10
2019-02-28T00:25:22.555Z,9.00
2019-02-28T00:26:22.537Z,8.60
2019-02-28T00:27:22.526Z,11.40
2019-02-28T00:28:23.076Z,11.00
2019-02-28T00:29:22.507Z,10.20
2019-02-28T00:30:22.503Z,8.60
2019-02-28T00:31:22.482Z,10.00
2019-02-28T00:32:24.809Z,9.20
2019-02-28T00:33:22.462Z,9.30
2019-02-28T00:34:22.453Z,9.90
2019-02-28T00:35:22.446Z,10.90
2019-02-28T00:36:22.428Z,9.10
2019-02-28T00:37:24.626Z,10.70
2019-02-28T00:38:22.405Z,9.30
2019-02-28T00:39:22.403Z,10.30
2019-02-28T00:40:22.412Z,9.40
2019-02-28T00:41:22.374Z,10.80
2019-02-28T00:42:22.363Z,10.00
2019-02-28T00:43:25.076Z,10.30
2019-02-28T00:44:22.342Z,9.60
2019-02-28T00:45:22.330Z,9.50
2019-02-28T00:46:22.330Z,11.10
2019-02-28T00:47:22.309Z,9.90
2019-02-28T00:48:22.391Z,10.20
2019-02-28T00:49:24.516Z,10.30
2019-02-28T00:50:22.276Z,9.50
2019-02-28T00:51:22.280Z,10.70
2019-02-28T00:52:22.260Z,10.00
2019-02-28T00:53:22.246Z,9.90
2019-02-28T00:54:22.233Z,10.20
2019-02-28T00:55:22.224Z,11.20
2019-02-28T00:56:22.221Z,10.80
2019-02-28T00:57:23.624Z,9.50
2019-02-28T00:58:22.193Z,10.00
2019-02-28T00:59:22.180Z,11.20
2019-02-28T01:00:22.168Z,10.70
2019-02-28T01:01:22.168Z,10.60
2019-02-28T01:02:22.148Z,10.80
2019-02-28T01:03:26.471Z,10.20
2019-02-28T01:04:23.123Z,10.20
2019-02-28T01:05:22.115Z,9.60
2019-02-28T01:06:22.113Z,9.80
2019-02-28T01:07:22.094Z,9.30
2019-02-28T01:08:22.773Z,9.90
2019-02-28T01:09:22.072Z,10.20
2019-02-28T01:10:22.061Z,10.10
2019-02-28T01:11:22.058Z,10.50
2019-02-28T01:12:22.040Z,9.00
2019-02-28T01:13:22.029Z,10.90
2019-02-28T01:14:22.018Z,10.40
2019-02-28T01:15:22.008Z,11.60
2019-02-28T01:16:22.005Z,10.90
2019-02-28T01:17:24.106Z,10.70
2019-02-28T01:18:21.975Z,11.80
2019-02-28T01:19:21.964Z,10.00
2019-02-28T01:20:21.954Z,10.80
2019-02-28T01:21:23.935Z,12.20
2019-02-28T01:22:21.933Z,10.40
2019-02-28T01:23:21.925Z,10.20
2019-02-28T01:24:21.912Z,11.80
2019-02-28T01:25:21.900Z,11.00
2019-02-28T01:26:21.903Z,10.90
2019-02-28T01:27:21.892Z,11.70
2019-02-28T01:28:23.357Z,11.50
2019-02-28T01:29:21.860Z,10.90
2019-02-28T01:30:21.846Z,10.20
2019-02-28T01:31:21.845Z,10.90
2019-02-28T01:32:21.830Z,12.50
2019-02-28T01:33:24.851Z,11.40
2019-02-28T01:34:21.804Z,12.80
2019-02-28T01:35:21.793Z,11.10
2019-02-28T01:36:21.790Z,10.40
2019-02-28T01:37:22.002Z,11.50
2019-02-28T01:38:23.993Z,12.70
2019-02-28T01:39:21.751Z,9.80
2019-02-28T01:40:21.739Z,10.40
2019-02-28T01:41:21.737Z,10.60
2019-02-28T01:42:21.717Z,12.20
2019-02-28T01:43:21.706Z,10.30
2019-02-28T01:44:21.698Z,11.40
2019-02-28T01:45:21.687Z,10.80
2019-02-28T01:46:21.682Z,11.10
2019-02-28T01:47:21.664Z,11.50
2019-02-28T01:48:22.626Z,10.80
2019-02-28T01:49:21.644Z,11.40
2019-02-28T01:50:21.632Z,11.60
2019-02-28T01:51:21.628Z,11.80
2019-02-28T01:52:21.613Z,11.10
2019-02-28T01:53:21.598Z,9.40
2019-02-28T01:54:21.588Z,10.90
2019-02-28T01:55:21.633Z,11.00
2019-02-28T01:56:21.574Z,10.80
2019-02-28T01:57:21.556Z,12.20
2019-02-28T01:58:21.547Z,12.20
2019-02-28T01:59:22.224Z,10.80
2019-02-28T02:00:23.811Z,10.70
2019-02-28T02:01:21.523Z,12.40
2019-02-28T02:02:21.507Z,12.90
2019-02-28T02:03:21.491Z,10.10
2019-02-28T02:04:21.481Z,11.40
2019-02-28T02:05:21.470Z,11.60
2019-02-28T02:06:22.481Z,11.70
2019-02-28T02:07:21.452Z,11.40
2019-02-28T02:08:21.437Z,11.30
2019-02-28T02:09:21.426Z,11.50
2019-02-28T02:10:21.834Z,11.40
2019-02-28T02:11:21.413Z,10.50
2019-02-28T02:12:21.395Z,12.10
2019-02-28T02:13:21.386Z,12.30
2019-02-28T02:14:21.373Z,11.30
2019-02-28T02:15:21.361Z,11.10
2019-02-28T02:16:26.766Z,10.40
2019-02-28T02:17:22.341Z,12.70
2019-02-28T02:18:21.332Z,11.40
2019-02-28T02:19:21.321Z,12.80
2019-02-28T02:20:23.484Z,11.00
2019-02-28T02:21:21.307Z,11.90
2019-02-28T02:22:21.288Z,12.00
2019-02-28T02:23:21.276Z,10.90
2019-02-28T02:24:21.264Z,12.30
2019-02-28T02:25:21.256Z,10.90
2019-02-28T02:26:21.251Z,10.90
2019-02-28T02:27:21.232Z,12.20
2019-02-28T02:28:21.223Z,12.00
2019-02-28T02:29:21.212Z,11.00
2019-02-28T02:30:21.214Z,11.80
2019-02-28T02:31:27.273Z,10.70
2019-02-28T02:32:22.185Z,10.90
2019-02-28T02:33:21.201Z,14.50
2019-02-28T02:34:24.417Z,12.00
2019-02-28T02:35:22.146Z,12.20
2019-02-28T02:36:21.167Z,13.20
2019-02-28T02:37:21.160Z,9.70
2019-02-28T02:38:21.118Z,13.50
2019-02-28T02:39:21.103Z,11.40
2019-02-28T02:40:23.093Z,11.80
2019-02-28T02:41:21.109Z,13.20
2019-02-28T02:42:21.073Z,12.10
2019-02-28T02:43:21.957Z,11.60
2019-02-28T02:44:21.050Z,12.20
2019-02-28T02:45:21.043Z,12.50
2019-02-28T02:46:21.422Z,12.90
2019-02-28T02:47:21.027Z,11.70
2019-02-28T02:48:21.005Z,11.80
2019-02-28T02:49:20.996Z,12.60
2019-02-28T02:50:20.985Z,12.10
2019-02-28T02:51:20.979Z,12.50
2019-02-28T02:52:25.889Z,12.50
2019-02-28T02:53:21.951Z,13.50
2019-02-28T02:54:20.942Z,11.60
2019-02-28T02:55:27.715Z,11.60
2019-02-28T02:56:21.931Z,12.00
2019-02-28T02:57:20.918Z,12.80
2019-02-28T02:58:26.909Z,14.80
2019-02-28T02:59:21.885Z,12.90
2019-02-28T03:00:20.875Z,13.30
2019-02-28T03:01:23.131Z,13.60
2019-02-28T03:02:20.863Z,14.00
2019-02-28T03:03:20.844Z,12.30
2019-02-28T03:04:23.036Z,14.90
2019-02-28T03:05:20.822Z,12.90
2019-02-28T03:06:20.840Z,13.20
2019-02-28T03:07:24.584Z,13.60
2019-02-28T03:08:20.794Z,14.30
2019-02-28T03:09:20.780Z,13.10
2019-02-28T03:10:20.768Z,14.60
2019-02-28T03:11:24.791Z,14.00
2019-02-28T03:12:21.756Z,14.40
2019-02-28T03:13:20.737Z,14.20
2019-02-28T03:14:20.731Z,14.40
2019-02-28T03:15:27.030Z,14.80
2019-02-28T03:16:21.702Z,13.70
2019-02-28T03:17:20.706Z,15.60
2019-02-28T03:18:21.786Z,14.10
2019-02-28T03:19:20.672Z,14.10
2019-02-28T03:20:20.660Z,13.20
2019-02-28T03:21:20.652Z,15.80
2019-02-28T03:22:28.318Z,15.70
2019-02-28T03:23:21.628Z,14.60
2019-02-28T03:24:20.617Z,14.60
2019-02-28T03:25:27.728Z,15.30
2019-02-28T03:26:21.597Z,15.10
2019-02-28T03:27:20.594Z,15.40
2019-02-28T03:28:20.576Z,15.40
2019-02-28T03:29:20.568Z,15.30
2019-02-28T03:30:29.226Z,15.50
2019-02-28T03:31:21.570Z,15.30
2019-02-28T03:32:20.540Z,15.80
2019-02-28T03:33:27.172Z,15.20
2019-02-28T03:34:21.512Z,16.30
2019-02-28T03:35:20.516Z,14.30
2019-02-28T03:36:20.501Z,15.20
2019-02-28T03:37:20.489Z,15.40
2019-02-28T03:38:20.466Z,15.60
2019-02-28T03:39:24.031Z,14.00
2019-02-28T03:40:21.445Z,16.60
2019-02-28T03:41:20.434Z,15.80
2019-02-28T03:42:20.433Z,16.60
2019-02-28T03:43:20.412Z,15.70
2019-02-28T03:44:21.840Z,16.70
2019-02-28T03:45:20.394Z,15.30
2019-02-28T03:46:20.382Z,15.60
2019-02-28T03:47:23.905Z,16.30
2019-02-28T03:48:20.358Z,16.50
2019-02-28T03:49:20.359Z,16.30
2019-02-28T03:50:21.984Z,16.70
2019-02-28T03:51:20.327Z,16.40
2019-02-28T03:52:20.325Z,18.40
2019-02-28T03:53:21.097Z,17.40
2019-02-28T03:54:20.297Z,18.50
2019-02-28T03:55:20.284Z,16.80
2019-02-28T03:56:20.275Z,14.80
2019-02-28T03:57:24.202Z,17.10
2019-02-28T03:58:21.263Z,16.90
2019-02-28T03:59:20.284Z,17.00
2019-02-28T04:00:20.243Z,16.70
2019-02-28T04:01:20.219Z,17.50
2019-02-28T04:02:22.174Z,18.70
2019-02-28T04:03:20.200Z,17.00
2019-02-28T04:04:20.189Z,17.10
2019-02-28T04:05:26.414Z,16.90
2019-02-28T04:06:21.164Z,18.20
2019-02-28T04:07:20.164Z,18.50
2019-02-28T04:08:20.142Z,18.70
2019-02-28T04:09:20.131Z,17.50
2019-02-28T04:10:22.002Z,18.00
2019-02-28T04:11:20.111Z,16.70
2019-02-28T04:12:20.108Z,17.70
2019-02-28T04:13:20.455Z,17.60
2019-02-28T04:14:20.076Z,17.80
2019-02-28T04:15:20.085Z,18.40
2019-02-28T04:16:20.055Z,17.60
2019-02-28T04:17:20.063Z,18.60
2019-02-28T04:18:20.040Z,17.40
2019-02-28T04:19:22.725Z,19.20
2019-02-28T04:20:20.011Z,18.70
2019-02-28T04:21:20.005Z,20.50
2019-02-28T04:22:23.083Z,18.60
2019-02-28T04:23:19.979Z,21.00
2019-02-28T04:24:19.968Z,20.00
2019-02-28T04:25:24.102Z,20.70
2019-02-28T04:26:19.952Z,18.40
2019-02-28T04:27:19.946Z,20.40
2019-02-28T04:28:19.924Z,19.90
2019-02-28T04:29:19.927Z,20.50
2019-02-28T04:30:19.902Z,21.10
2019-02-28T04:31:20.326Z,20.50
2019-02-28T04:32:26.591Z,20.60
2019-02-28T04:33:20.884Z,20.40
2019-02-28T04:34:19.858Z,19.00
2019-02-28T04:35:24.290Z,21.00
2019-02-28T04:36:20.838Z,22.60
2019-02-28T04:37:19.836Z,20.40
2019-02-28T04:38:20.711Z,20.00
2019-02-28T04:39:22.752Z,21.50
2019-02-28T04:40:19.794Z,22.10
2019-02-28T04:41:19.784Z,20.70
2019-02-28T04:42:19.778Z,20.40
2019-02-28T04:43:19.761Z,24.20
2019-02-28T04:44:19.753Z,23.90
2019-02-28T04:45:19.740Z,19.70
2019-02-28T04:46:19.727Z,21.20
2019-02-28T04:47:19.718Z,22.50
2019-02-28T04:48:19.715Z,21.50
2019-02-28T04:49:22.669Z,22.70
2019-02-28T04:50:19.684Z,22.80
2019-02-28T04:51:19.675Z,20.40
2019-02-28T04:52:19.663Z,23.50
2019-02-28T04:53:20.128Z,23.60
2019-02-28T04:54:19.645Z,23.00
2019-02-28T04:55:19.631Z,22.70
2019-02-28T04:56:19.619Z,23.40
2019-02-28T04:57:20.774Z,25.00
2019-02-28T04:58:22.441Z,25.00
2019-02-28T04:59:20.586Z,26.20
2019-02-28T05:00:19.580Z,25.10
2019-02-28T05:01:19.567Z,25.10
2019-02-28T05:02:20.604Z,28.90
2019-02-28T05:03:19.556Z,24.50
2019-02-28T05:04:19.535Z,25.00
2019-02-28T05:05:19.525Z,24.90
2019-02-28T05:06:21.162Z,27.60
2019-02-28T05:07:19.505Z,25.20
2019-02-28T05:08:19.498Z,25.80
2019-02-28T05:09:19.481Z,29.10
2019-02-28T05:10:22.408Z,25.30
2019-02-28T05:11:19.459Z,33.50
2019-02-28T05:12:19.447Z,28.30
2019-02-28T05:13:19.446Z,24.90
2019-02-28T05:14:23.367Z,26.00
2019-02-28T05:15:19.414Z,27.30
2019-02-28T05:16:19.405Z,30.60
2019-02-28T05:17:22.303Z,28.00
2019-02-28T05:18:19.391Z,27.70
2019-02-28T05:19:19.376Z,27.60
2019-02-28T05:20:19.361Z,28.70
2019-02-28T05:21:19.647Z,26.50
2019-02-28T05:22:19.338Z,27.50
2019-02-28T05:23:19.337Z,27.00
2019-02-28T05:24:19.316Z,27.00
2019-02-28T05:25:19.306Z,26.40
2019-02-28T05:26:19.295Z,28.60
2019-02-28T05:27:19.284Z,29.90
2019-02-28T05:28:19.289Z,27.60
2019-02-28T05:29:19.263Z,28.10
2019-02-28T05:30:19.824Z,28.40
2019-02-28T05:31:19.239Z,29.10
2019-02-28T05:32:19.232Z,28.70
2019-02-28T05:33:19.228Z,29.70
2019-02-28T05:34:19.211Z,30.60
2019-02-28T05:35:19.209Z,30.30
2019-02-28T05:36:19.191Z,30.40
2019-02-28T05:37:19.175Z,30.10
2019-02-28T05:38:21.243Z,30.20
2019-02-28T05:39:19.153Z,30.30
2019-02-28T05:40:19.142Z,31.60
2019-02-28T05:41:19.133Z,33.00
2019-02-28T05:42:20.235Z,30.80
2019-02-28T05:43:19.118Z,30.50
2019-02-28T05:44:21.240Z,32.50
2019-02-28T05:45:19.087Z,33.00
2019-02-28T05:46:20.375Z,34.20
2019-02-28T05:47:19.066Z,30.20
2019-02-28T05:48:19.087Z,31.10
2019-02-28T05:49:19.043Z,31.60
2019-02-28T05:50:19.032Z,31.90
2019-02-28T05:51:19.023Z,32.00
2019-02-28T05:52:19.014Z,33.60
2019-02-28T05:53:19.013Z,35.00
2019-02-28T05:54:18.990Z,32.40
2019-02-28T05:55:24.471Z,32.50
2019-02-28T05:56:19.968Z,33.70
2019-02-28T05:57:18.957Z,33.40
2019-02-28T05:58:20.861Z,34.10
2019-02-28T05:59:18.940Z,35.10
2019-02-28T06:00:18.925Z,34.40
2019-02-28T06:01:18.915Z,34.70
2019-02-28T06:02:22.300Z,32.80
2019-02-28T06:03:18.899Z,34.10
2019-02-28T06:04:18.882Z,33.20
2019-02-28T06:05:18.876Z,33.10
2019-02-28T06:06:20.171Z,35.00
2019-02-28T06:07:18.847Z,33.90
2019-02-28T06:08:18.844Z,34.50
2019-02-28T06:09:18.830Z,35.20
2019-02-28T06:10:23.477Z,33.50
2019-02-28T06:11:19.803Z,33.80
2019-02-28T06:12:18.793Z,35.10
2019-02-28T06:13:18.972Z,35.70
2019-02-28T06:14:18.771Z,36.00
2019-02-28T06:15:18.764Z,34.90
2019-02-28T06:16:18.750Z,35.80
2019-02-28T06:17:20.793Z,37.00
2019-02-28T06:18:18.735Z,35.50
2019-02-28T06:19:20.279Z,34.60
2019-02-28T06:20:18.706Z,37.40
2019-02-28T06:21:18.694Z,38.30
2019-02-28T06:22:18.685Z,35.30
2019-02-28T06:23:18.684Z,38.80
2019-02-28T06:24:18.662Z,36.90
2019-02-28T06:25:23.648Z,39.40
2019-02-28T06:26:19.646Z,37.60
2019-02-28T06:27:18.631Z,39.00
2019-02-28T06:28:18.645Z,38.80
2019-02-28T06:29:18.608Z,40.10
2019-02-28T06:30:18.600Z,39.00
2019-02-28T06:31:18.586Z,37.50
2019-02-28T06:32:23.116Z,39.00
2019-02-28T06:33:21.213Z,39.30
2019-02-28T06:34:18.555Z,37.70
2019-02-28T06:35:20.363Z,42.30
2019-02-28T06:36:18.536Z,40.60
2019-02-28T06:37:18.521Z,42.10
2019-02-28T06:38:19.191Z,39.10
2019-02-28T06:39:18.499Z,40.40
2019-02-28T06:40:18.487Z,38.30
2019-02-28T06:41:18.477Z,40.20
2019-02-28T06:42:18.467Z,39.10
2019-02-28T06:43:19.501Z,40.40
2019-02-28T06:44:18.445Z,41.70
2019-02-28T06:45:18.434Z,41.80
2019-02-28T06:46:18.424Z,42.00
2019-02-28T06:47:18.414Z,41.50
2019-02-28T06:48:20.405Z,40.60
2019-02-28T06:49:19.390Z,41.20
2019-02-28T06:50:18.381Z,43.30
2019-02-28T06:51:18.369Z,41.20
2019-02-28T06:52:18.359Z,43.10
2019-02-28T06:53:18.347Z,41.60
2019-02-28T06:54:18.346Z,41.20
2019-02-28T06:55:18.327Z,46.70
2019-02-28T06:56:21.895Z,43.40
2019-02-28T06:57:18.304Z,43.90
2019-02-28T06:58:18.295Z,40.70
2019-02-28T06:59:18.295Z,43.60
2019-02-28T07:00:18.274Z,42.10
2019-02-28T07:01:19.273Z,44.40
2019-02-28T07:02:18.250Z,45.00
2019-02-28T07:03:18.242Z,44.70
2019-02-28T07:04:18.240Z,45.60
2019-02-28T07:05:18.221Z,46.20
2019-02-28T07:06:18.208Z,47.50
2019-02-28T07:07:18.201Z,45.90
2019-02-28T07:08:24.262Z,45.60
2019-02-28T07:09:19.189Z,46.80
2019-02-28T07:10:18.175Z,45.50
2019-02-28T07:11:19.870Z,47.40
2019-02-28T07:12:18.159Z,48.70
2019-02-28T07:13:18.133Z,46.10
2019-02-28T07:14:18.136Z,47.80
2019-02-28T07:15:23.621Z,45.80
2019-02-28T07:16:19.103Z,46.20
2019-02-28T07:17:18.091Z,45.60
2019-02-28T07:18:18.807Z,45.70
2019-02-28T07:19:18.075Z,45.20
2019-02-28T07:20:18.060Z,46.10
2019-02-28T07:21:18.046Z,46.30
2019-02-28T07:22:19.662Z,47.60
2019-02-28T07:23:18.025Z,47.40
2019-02-28T07:24:18.044Z,45.30
2019-02-28T07:25:18.004Z,46.30
2019-02-28T07:26:18.706Z,44.90
2019-02-28T07:27:17.982Z,44.70
2019-02-28T07:28:17.968Z,46.30
2019-02-28T07:29:17.966Z,45.80
2019-02-28T07:30:19.222Z,46.30
2019-02-28T07:31:17.937Z,47.30
2019-02-28T07:32:17.925Z,47.00
2019-02-28T07:33:17.915Z,48.60
2019-02-28T07:34:21.942Z,47.50
2019-02-28T07:35:18.897Z,46.30
2019-02-28T07:36:17.884Z,48.20
2019-02-28T07:37:18.889Z,46.10
2019-02-28T07:38:17.863Z,49.80
2019-02-28T07:39:17.857Z,46.70
2019-02-28T07:40:17.839Z,47.00
2019-02-28T07:41:17.830Z,45.20
2019-02-28T07:42:17.817Z,47.90
2019-02-28T07:43:17.815Z,48.50
2019-02-28T07:44:21.094Z,46.20
2019-02-28T07:45:17.783Z,48.80
2019-02-28T07:46:17.775Z,46.30
2019-02-28T07:47:18.414Z,47.10
2019-02-28T07:48:17.753Z,48.00
2019-02-28T07:49:17.751Z,51.10
2019-02-28T07:50:17.736Z,48.70
2019-02-28T07:51:18.379Z,50.20
2019-02-28T07:52:17.708Z,50.70
2019-02-28T07:53:17.700Z,49.20
2019-02-28T07:54:17.698Z,49.10
2019-02-28T07:55:17.679Z,59.30
2019-02-28T07:56:17.664Z,50.20
2019-02-28T07:57:17.998Z,50.10
2019-02-28T07:58:17.643Z,49.40
2019-02-28T07:59:17.640Z,48.80
2019-02-28T08:00:18.667Z,50.70
2019-02-28T08:01:18.435Z,52.40
2019-02-28T08:02:17.598Z,48.60
2019-02-28T08:03:17.587Z,49.50
2019-02-28T08:04:18.398Z,49.90
2019-02-28T08:05:17.569Z,52.40
2019-02-28T08:06:17.555Z,51.30
2019-02-28T08:07:17.547Z,51.10
2019-02-28T08:08:17.538Z,56.10
2019-02-28T08:09:17.537Z,50.80
2019-02-28T08:10:17.512Z,49.50
2019-02-28T08:11:19.927Z,55.50
2019-02-28T08:12:17.494Z,50.90
2019-02-28T08:13:17.480Z,53.30
2019-02-28T08:14:17.476Z,52.50
2019-02-28T08:15:21.058Z,54.70
2019-02-28T08:16:17.449Z,53.50
2019-02-28T08:17:17.441Z,54.70
2019-02-28T08:18:18.926Z,54.10
2019-02-28T08:19:17.427Z,53.90
2019-02-28T08:20:17.403Z,55.70
2019-02-28T08:21:17.395Z,54.60
2019-02-28T08:22:23.358Z,55.20
2019-02-28T08:23:18.372Z,53.00
2019-02-28T08:24:17.372Z,53.60
2019-02-28T08:25:17.352Z,57.50
2019-02-28T08:26:18.784Z,59.00
2019-02-28T08:27:17.330Z,58.20
2019-02-28T08:28:17.319Z,55.60
2019-02-28T08:29:17.317Z,56.10
2019-02-28T08:30:19.597Z,56.40
2019-02-28T08:31:17.288Z,56.30
2019-02-28T08:32:17.276Z,57.30
2019-02-28T08:33:17.270Z,62.90
2019-02-28T08:34:17.265Z,57.60
2019-02-28T08:35:17.250Z,58.00
2019-02-28T08:36:17.234Z,56.00
2019-02-28T08:37:18.995Z,57.30
2019-02-28T08:38:17.218Z,57.80
2019-02-28T08:39:17.230Z,56.20
2019-02-28T08:40:17.200Z,58.70
2019-02-28T08:41:17.188Z,55.10
2019-02-28T08:42:17.171Z,56.80
2019-02-28T08:43:26.658Z,58.00
2019-02-28T08:44:22.743Z,59.10
2019-02-28T08:45:18.136Z,56.20
2019-02-28T08:46:17.128Z,57.50
2019-02-28T08:47:17.918Z,57.10
2019-02-28T08:48:17.103Z,60.60
2019-02-28T08:49:17.094Z,56.80
2019-02-28T08:50:20.639Z,56.50
2019-02-28T08:51:18.073Z,54.10
2019-02-28T08:52:17.059Z,55.90
2019-02-28T08:53:17.051Z,54.40
2019-02-28T08:54:17.039Z,57.30
2019-02-28T08:55:17.033Z,59.00
2019-02-28T08:56:17.013Z,55.40
2019-02-28T08:57:17.005Z,56.70
2019-02-28T08:58:16.993Z,58.40
2019-02-28T08:59:20.456Z,55.10
2019-02-28T09:00:17.980Z,55.20
2019-02-28T09:01:16.961Z,56.50
2019-02-28T09:02:18.172Z,54.10
2019-02-28T09:03:16.938Z,54.40
2019-02-28T09:04:16.929Z,55.00
2019-02-28T09:05:16.923Z,54.00
2019-02-28T09:06:16.904Z,54.70
2019-02-28T09:07:16.891Z,57.10
2019-02-28T09:08:16.883Z,54.90
2019-02-28T09:09:16.870Z,54.70
2019-02-28T09:10:16.873Z,56.70
2019-02-28T09:11:20.664Z,56.50
2019-02-28T09:12:16.835Z,58.60
2019-02-28T09:13:16.826Z,54.50
2019-02-28T09:14:17.822Z,55.20
2019-02-28T09:15:16.810Z,55.60
2019-02-28T09:16:16.791Z,54.70
2019-02-28T09:17:18.594Z,57.30
2019-02-28T09:18:16.769Z,57.00
2019-02-28T09:19:16.757Z,57.00
2019-02-28T09:20:16.756Z,54.30
2019-02-28T09:21:18.371Z,55.50
2019-02-28T09:22:16.724Z,55.70
2019-02-28T09:23:16.718Z,56.80
2019-02-28T09:24:16.704Z,56.90
2019-02-28T09:25:21.571Z,57.60
2019-02-28T09:26:17.682Z,55.90
2019-02-28T09:27:16.668Z,58.30
2019-02-28T09:28:16.657Z,58.20
2019-02-28T09:29:18.358Z,58.60
2019-02-28T09:30:16.643Z,58.70
2019-02-28T09:31:16.626Z,58.00
2019-02-28T09:32:17.579Z,56.80
2019-02-28T09:33:19.329Z,58.80
2019-02-28T09:34:17.591Z,66.50
2019-02-28T09:35:16.591Z,58.60
2019-02-28T09:36:20.360Z,60.00
2019-02-28T09:37:16.568Z,57.60
2019-02-28T09:38:16.554Z,57.70
2019-02-28T09:39:19.412Z,59.20
2019-02-28T09:40:16.540Z,60.70
2019-02-28T09:41:16.516Z,58.50
2019-02-28T09:42:16.504Z,58.80
2019-02-28T09:43:16.496Z,59.30
2019-02-28T09:44:16.491Z,57.20
2019-02-28T09:45:16.482Z,60.40
2019-02-28T09:46:16.491Z,56.90
2019-02-28T09:47:16.451Z,56.20
2019-02-28T09:48:16.444Z,57.60
2019-02-28T09:49:16.429Z,58.80
2019-02-28T09:50:19.305Z,59.30
2019-02-28T09:51:17.407Z,55.10
2019-02-28T09:52:16.396Z,55.70
2019-02-28T09:53:16.759Z,54.80
2019-02-28T09:54:16.372Z,56.50
2019-02-28T09:55:16.374Z,55.70
2019-02-28T09:56:16.353Z,58.20
2019-02-28T09:57:18.932Z,60.50
2019-02-28T09:58:16.329Z,57.60
2019-02-28T09:59:16.317Z,57.40
2019-02-28T10:00:16.315Z,56.80
2019-02-28T10:01:16.350Z,58.40
2019-02-28T10:02:16.284Z,58.70
2019-02-28T10:03:18.602Z,56.00
2019-02-28T10:04:16.264Z,56.00
2019-02-28T10:05:16.262Z,60.50
2019-02-28T10:06:16.576Z,56.80
2019-02-28T10:07:16.231Z,56.20
2019-02-28T10:08:16.217Z,56.00
2019-02-28T10:09:17.738Z,57.30
2019-02-28T10:10:17.407Z,57.50
2019-02-28T10:11:16.182Z,56.50
2019-02-28T10:12:16.171Z,53.90
2019-02-28T10:13:18.259Z,53.70
2019-02-28T10:14:16.149Z,53.80
2019-02-28T10:15:16.146Z,54.00
2019-02-28T10:16:16.797Z,54.60
2019-02-28T10:17:16.115Z,53.10
2019-02-28T10:18:16.109Z,55.50
2019-02-28T10:19:16.096Z,53.70
2019-02-28T10:20:16.494Z,53.50
2019-02-28T10:21:16.070Z,54.60
2019-02-28T10:22:16.065Z,52.40
2019-02-28T10:23:18.455Z,51.80
2019-02-28T10:24:17.034Z,52.60
2019-02-28T10:25:16.039Z,51.80
2019-02-28T10:26:17.247Z,52.60
2019-02-28T10:27:16.003Z,56.40
2019-02-28T10:28:15.992Z,54.80
2019-02-28T10:29:15.990Z,53.50
2019-02-28T10:30:16.750Z,57.20
2019-02-28T10:31:15.967Z,51.90
2019-02-28T10:32:15.947Z,60.90
2019-02-28T10:33:17.367Z,53.40
2019-02-28T10:34:15.927Z,51.20
2019-02-28T10:35:15.917Z,54.80
2019-02-28T10:36:15.911Z,53.20
2019-02-28T10:37:15.890Z,52.10
2019-02-28T10:38:15.880Z,54.00
2019-02-28T10:39:15.885Z,50.50
2019-02-28T10:40:17.930Z,54.70
2019-02-28T10:41:15.856Z,53.40
2019-02-28T10:42:15.836Z,53.80
2019-02-28T10:43:16.468Z,53.60
2019-02-28T10:44:15.812Z,56.70
2019-02-28T10:45:15.801Z,54.50
2019-02-28T10:46:16.917Z,54.50
2019-02-28T10:47:15.780Z,54.50
2019-02-28T10:48:15.768Z,52.90
2019-02-28T10:49:16.873Z,55.70
2019-02-28T10:50:15.748Z,53.90
2019-02-28T10:51:15.745Z,54.10
2019-02-28T10:52:15.730Z,54.20
2019-02-28T10:53:15.712Z,55.50
2019-02-28T10:54:15.701Z,53.80
2019-02-28T10:55:15.693Z,54.10
2019-02-28T10:56:15.693Z,51.60
2019-02-28T10:57:15.668Z,52.50
2019-02-28T10:58:16.225Z,51.50
2019-02-28T10:59:15.645Z,51.30
2019-02-28T11:00:15.636Z,52.40
2019-02-28T11:01:15.635Z,53.00
2019-02-28T11:02:18.984Z,52.70
2019-02-28T11:03:15.602Z,53.00
2019-02-28T11:04:15.589Z,56.30
2019-02-28T11:05:18.760Z,51.60
2019-02-28T11:06:15.576Z,50.80
2019-02-28T11:07:15.559Z,53.30
2019-02-28T11:08:17.418Z,52.60
2019-02-28T11:09:18.380Z,47.60
2019-02-28T11:10:16.524Z,49.10
2019-02-28T11:11:15.526Z,48.60
2019-02-28T11:12:19.769Z,50.60
2019-02-28T11:13:15.494Z,50.80
2019-02-28T11:14:15.483Z,53.10
2019-02-28T11:15:15.476Z,51.60
2019-02-28T11:16:15.468Z,52.50
2019-02-28T11:17:15.448Z,51.80
2019-02-28T11:18:15.436Z,54.10
2019-02-28T11:19:18.689Z,56.00
2019-02-28T11:20:22.206Z,51.90
2019-02-28T11:21:16.411Z,51.80
2019-02-28T11:22:15.401Z,53.70
2019-02-28T11:23:15.950Z,54.30
2019-02-28T11:24:15.375Z,55.20
2019-02-28T11:25:15.370Z,53.90
2019-02-28T11:26:15.355Z,50.80
2019-02-28T11:27:16.090Z,54.00
2019-02-28T11:28:15.335Z,54.20
2019-02-28T11:29:15.319Z,57.50
2019-02-28T11:30:15.313Z,52.60
2019-02-28T11:31:16.312Z,52.20
2019-02-28T11:32:15.290Z,55.70
2019-02-28T11:33:15.281Z,55.60
2019-02-28T11:34:15.936Z,54.10
2019-02-28T11:35:15.249Z,52.40
2019-02-28T11:36:15.249Z,53.10
2019-02-28T11:37:15.231Z,52.50
2019-02-28T11:38:20.494Z,55.60
2019-02-28T11:39:16.207Z,52.30
2019-02-28T11:40:15.198Z,54.50
2019-02-28T11:41:15.559Z,53.10
2019-02-28T11:42:15.180Z,52.20
2019-02-28T11:43:15.163Z,53.40
2019-02-28T11:44:15.155Z,51.80
2019-02-28T11:45:15.141Z,54.50
2019-02-28T11:46:15.139Z,54.70
2019-02-28T11:47:15.119Z,55.70
2019-02-28T11:48:18.760Z,55.20
2019-02-28T11:49:15.097Z,53.80
2019-02-28T11:50:15.094Z,55.10
2019-02-28T11:51:17.625Z,57.30
2019-02-28T11:52:15.992Z,55.30
2019-02-28T11:53:15.051Z,52.50
2019-02-28T11:54:15.044Z,52.30
2019-02-28T11:55:16.786Z,54.70
2019-02-28T11:56:16.031Z,53.00
2019-02-28T11:57:15.013Z,54.10
2019-02-28T11:58:17.629Z,50.60
2019-02-28T11:59:14.987Z,53.90
2019-02-28T12:00:14.991Z,52.70
2019-02-28T12:01:14.993Z,53.40
2019-02-28T12:02:14.954Z,54.50
2019-02-28T12:03:14.946Z,53.60
2019-02-28T12:04:14.932Z,54.80
2019-02-28T12:05:15.678Z,56.70
2019-02-28T12:06:14.924Z,57.70
2019-02-28T12:07:14.903Z,54.80
2019-02-28T12:08:14.892Z,53.20
2019-02-28T12:09:16.352Z,54.60
2019-02-28T12:10:14.869Z,53.60
2019-02-28T12:11:14.887Z,56.60
2019-02-28T12:12:14.846Z,56.10
2019-02-28T12:13:16.515Z,53.70
2019-02-28T12:14:14.830Z,56.50
2019-02-28T12:15:14.825Z,52.40
2019-02-28T12:16:16.301Z,56.50
2019-02-28T12:17:15.154Z,53.50
2019-02-28T12:18:14.786Z,57.30
2019-02-28T12:19:15.937Z,58.20
2019-02-28T12:20:14.759Z,54.70
2019-02-28T12:21:14.749Z,53.20
2019-02-28T12:22:14.748Z,55.00
2019-02-28T12:23:14.729Z,55.10
2019-02-28T12:24:14.715Z,56.30
2019-02-28T12:25:14.709Z,55.60
2019-02-28T12:26:17.772Z,55.30
2019-02-28T12:27:14.691Z,54.00
2019-02-28T12:28:14.675Z,59.40
2019-02-28T12:29:14.660Z,55.40
2019-02-28T12:30:14.651Z,58.70
2019-02-28T12:31:14.647Z,50.90
2019-02-28T12:32:14.636Z,54.20
2019-02-28T12:33:15.355Z,57.10
2019-02-28T12:34:15.190Z,56.40
2019-02-28T12:35:14.599Z,58.90
2019-02-28T12:36:15.290Z,54.60
2019-02-28T12:37:14.611Z,55.90
2019-02-28T12:38:14.564Z,54.60
2019-02-28T12:39:14.553Z,56.70
2019-02-28T12:40:14.541Z,55.70
2019-02-28T12:41:14.531Z,54.70
2019-02-28T12:42:14.528Z,52.60
2019-02-28T12:43:14.508Z,52.40
2019-02-28T12:44:15.471Z,55.10
2019-02-28T12:45:14.487Z,55.30
2019-02-28T12:46:14.478Z,55.30
2019-02-28T12:47:14.473Z,54.70
2019-02-28T12:48:14.699Z,57.40
2019-02-28T12:49:14.451Z,53.10
2019-02-28T12:50:14.432Z,53.10
2019-02-28T12:51:14.423Z,54.10
2019-02-28T12:52:15.480Z,55.40
2019-02-28T12:53:14.400Z,54.90